<?xml version="1.0" encoding="utf-8"?>
<gpx xmlns:xsi="http://www.w3.org/2001/XMLSchema-instance" xmlns:xsd="http://www.w3.org/2001/XMLSchema" version="1.1" creator="Shapelink.com" xmlns="http://www.topografix.com/GPX/1/1" xmlns:gpxtpx="http://www.garmin.com/xmlschemas/TrackPointExtension/v1">
  <metadata>
    <name>Gåing 5.10 km, 2012-03-15</name>
    <desc></desc>
    <author><name>Mikael Blom</name></author> 
    <time>2012-03-15T13:35:22Z</time>
  </metadata>
  <trk>
    <name>Gåing 5.10 km, 2012-03-15</name>
    <trkseg>
      <trkpt lat="59.9870397" lon="17.7391443">
        <ele>69.8329</ele>
        <time>2012-03-15T13:35:22Z</time>
      </trkpt>
      <trkpt lat="59.9871292" lon="17.7391703">
        <ele>64.5457</ele>
        <time>2012-03-15T13:35:25Z</time>
      </trkpt>
      <trkpt lat="59.987103" lon="17.7392134">
        <ele>62.1423</ele>
        <time>2012-03-15T13:35:26Z</time>
      </trkpt>
      <trkpt lat="59.9871135" lon="17.73932">
        <ele>56.3745</ele>
        <time>2012-03-15T13:35:32Z</time>
      </trkpt>
      <trkpt lat="59.9872155" lon="17.7393332">
        <ele>56.8551</ele>
        <time>2012-03-15T13:35:38Z</time>
      </trkpt>
      <trkpt lat="59.9872057" lon="17.7393891">
        <ele>49.6453</ele>
        <time>2012-03-15T13:35:43Z</time>
      </trkpt>
      <trkpt lat="59.9872608" lon="17.7393886">
        <ele>50.6066</ele>
        <time>2012-03-15T13:35:46Z</time>
      </trkpt>
      <trkpt lat="59.9873304" lon="17.739385">
        <ele>52.5292</ele>
        <time>2012-03-15T13:35:51Z</time>
      </trkpt>
      <trkpt lat="59.9874884" lon="17.7393153">
        <ele>57.8165</ele>
        <time>2012-03-15T13:35:57Z</time>
      </trkpt>
      <trkpt lat="59.987608" lon="17.7392668">
        <ele>62.1423</ele>
        <time>2012-03-15T13:36:03Z</time>
      </trkpt>
      <trkpt lat="59.9876747" lon="17.7392569">
        <ele>62.1423</ele>
        <time>2012-03-15T13:36:07Z</time>
      </trkpt>
      <trkpt lat="59.9877731" lon="17.7392397">
        <ele>62.1423</ele>
        <time>2012-03-15T13:36:12Z</time>
      </trkpt>
      <trkpt lat="59.9878278" lon="17.7392201">
        <ele>63.5844</ele>
        <time>2012-03-15T13:36:16Z</time>
      </trkpt>
      <trkpt lat="59.9879589" lon="17.7391829">
        <ele>66.4683</ele>
        <time>2012-03-15T13:36:22Z</time>
      </trkpt>
      <trkpt lat="59.9880592" lon="17.7391601">
        <ele>68.8716</ele>
        <time>2012-03-15T13:36:27Z</time>
      </trkpt>
      <trkpt lat="59.9881669" lon="17.7391662">
        <ele>69.3523</ele>
        <time>2012-03-15T13:36:33Z</time>
      </trkpt>
      <trkpt lat="59.9883367" lon="17.7391015">
        <ele>73.1976</ele>
        <time>2012-03-15T13:36:39Z</time>
      </trkpt>
      <trkpt lat="59.9883783" lon="17.7390894">
        <ele>72.2362</ele>
        <time>2012-03-15T13:36:43Z</time>
      </trkpt>
      <trkpt lat="59.9884223" lon="17.739078">
        <ele>72.7169</ele>
        <time>2012-03-15T13:36:46Z</time>
      </trkpt>
      <trkpt lat="59.9884312" lon="17.7390652">
        <ele>73.1976</ele>
        <time>2012-03-15T13:36:47Z</time>
      </trkpt>
      <trkpt lat="59.9885396" lon="17.7390073">
        <ele>74.6395</ele>
        <time>2012-03-15T13:36:53Z</time>
      </trkpt>
      <trkpt lat="59.9886108" lon="17.7389782">
        <ele>74.1588</ele>
        <time>2012-03-15T13:36:57Z</time>
      </trkpt>
      <trkpt lat="59.9886983" lon="17.7389276">
        <ele>76.0814</ele>
        <time>2012-03-15T13:37:02Z</time>
      </trkpt>
      <trkpt lat="59.9888238" lon="17.7388607">
        <ele>81.3688</ele>
        <time>2012-03-15T13:37:07Z</time>
      </trkpt>
      <trkpt lat="59.9889034" lon="17.7388285">
        <ele>81.8494</ele>
        <time>2012-03-15T13:37:13Z</time>
      </trkpt>
      <trkpt lat="59.9889844" lon="17.7387993">
        <ele>80.4075</ele>
        <time>2012-03-15T13:37:19Z</time>
      </trkpt>
      <trkpt lat="59.988992" lon="17.7388064">
        <ele>79.9266</ele>
        <time>2012-03-15T13:37:22Z</time>
      </trkpt>
      <trkpt lat="59.9890625" lon="17.738728">
        <ele>78.4847</ele>
        <time>2012-03-15T13:37:28Z</time>
      </trkpt>
      <trkpt lat="59.9891356" lon="17.7386788">
        <ele>77.5234</ele>
        <time>2012-03-15T13:37:33Z</time>
      </trkpt>
      <trkpt lat="59.9891725" lon="17.7386512">
        <ele>77.5234</ele>
        <time>2012-03-15T13:37:37Z</time>
      </trkpt>
      <trkpt lat="59.9892917" lon="17.7385652">
        <ele>77.5234</ele>
        <time>2012-03-15T13:37:44Z</time>
      </trkpt>
      <trkpt lat="59.9893709" lon="17.7385161">
        <ele>76.5621</ele>
        <time>2012-03-15T13:37:50Z</time>
      </trkpt>
      <trkpt lat="59.9894864" lon="17.7384442">
        <ele>77.5234</ele>
        <time>2012-03-15T13:37:55Z</time>
      </trkpt>
      <trkpt lat="59.9895794" lon="17.738395">
        <ele>78.004</ele>
        <time>2012-03-15T13:38:01Z</time>
      </trkpt>
      <trkpt lat="59.9894304" lon="17.7384679">
        <ele>62.6229</ele>
        <time>2012-03-15T13:38:06Z</time>
      </trkpt>
      <trkpt lat="59.9895116" lon="17.7384062">
        <ele>67.4297</ele>
        <time>2012-03-15T13:38:10Z</time>
      </trkpt>
      <trkpt lat="59.9895335" lon="17.738399">
        <ele>65.9877</ele>
        <time>2012-03-15T13:38:13Z</time>
      </trkpt>
      <trkpt lat="59.9895896" lon="17.7383629">
        <ele>63.5844</ele>
        <time>2012-03-15T13:38:18Z</time>
      </trkpt>
      <trkpt lat="59.9896009" lon="17.7384111">
        <ele>54.4518</ele>
        <time>2012-03-15T13:38:23Z</time>
      </trkpt>
      <trkpt lat="59.9896551" lon="17.7383974">
        <ele>52.0486</ele>
        <time>2012-03-15T13:38:27Z</time>
      </trkpt>
      <trkpt lat="59.9897771" lon="17.7383333">
        <ele>56.8551</ele>
        <time>2012-03-15T13:38:33Z</time>
      </trkpt>
      <trkpt lat="59.9898669" lon="17.7383007">
        <ele>59.7391</ele>
        <time>2012-03-15T13:38:38Z</time>
      </trkpt>
      <trkpt lat="59.9899396" lon="17.7382762">
        <ele>60.2197</ele>
        <time>2012-03-15T13:38:42Z</time>
      </trkpt>
      <trkpt lat="59.990069" lon="17.7382261">
        <ele>60.2197</ele>
        <time>2012-03-15T13:38:49Z</time>
      </trkpt>
      <trkpt lat="59.9901453" lon="17.7381934">
        <ele>57.3358</ele>
        <time>2012-03-15T13:38:55Z</time>
      </trkpt>
      <trkpt lat="59.9901654" lon="17.7381805">
        <ele>54.9324</ele>
        <time>2012-03-15T13:38:58Z</time>
      </trkpt>
      <trkpt lat="59.9901912" lon="17.7381811">
        <ele>51.5679</ele>
        <time>2012-03-15T13:39:02Z</time>
      </trkpt>
      <trkpt lat="59.9902608" lon="17.7381572">
        <ele>53.0098</ele>
        <time>2012-03-15T13:39:06Z</time>
      </trkpt>
      <trkpt lat="59.9903068" lon="17.7381306">
        <ele>52.0486</ele>
        <time>2012-03-15T13:39:10Z</time>
      </trkpt>
      <trkpt lat="59.9904375" lon="17.7380696">
        <ele>57.8165</ele>
        <time>2012-03-15T13:39:16Z</time>
      </trkpt>
      <trkpt lat="59.9904918" lon="17.7380692">
        <ele>52.5292</ele>
        <time>2012-03-15T13:39:22Z</time>
      </trkpt>
      <trkpt lat="59.9905559" lon="17.7380329">
        <ele>55.8938</ele>
        <time>2012-03-15T13:39:26Z</time>
      </trkpt>
      <trkpt lat="59.9906533" lon="17.7379914">
        <ele>54.9324</ele>
        <time>2012-03-15T13:39:32Z</time>
      </trkpt>
      <trkpt lat="59.9907019" lon="17.737949">
        <ele>53.0098</ele>
        <time>2012-03-15T13:39:37Z</time>
      </trkpt>
      <trkpt lat="59.9907762" lon="17.7378977">
        <ele>53.4905</ele>
        <time>2012-03-15T13:39:42Z</time>
      </trkpt>
      <trkpt lat="59.9908467" lon="17.7378363">
        <ele>53.0098</ele>
        <time>2012-03-15T13:39:47Z</time>
      </trkpt>
      <trkpt lat="59.9908793" lon="17.7378211">
        <ele>53.0098</ele>
        <time>2012-03-15T13:39:49Z</time>
      </trkpt>
      <trkpt lat="59.9909793" lon="17.7377501">
        <ele>55.4131</ele>
        <time>2012-03-15T13:39:55Z</time>
      </trkpt>
      <trkpt lat="59.9910859" lon="17.7376939">
        <ele>57.3358</ele>
        <time>2012-03-15T13:40:02Z</time>
      </trkpt>
      <trkpt lat="59.9911787" lon="17.7376263">
        <ele>58.2971</ele>
        <time>2012-03-15T13:40:08Z</time>
      </trkpt>
      <trkpt lat="59.9912798" lon="17.7375878">
        <ele>56.3745</ele>
        <time>2012-03-15T13:40:14Z</time>
      </trkpt>
      <trkpt lat="59.9913554" lon="17.7375668">
        <ele>56.3745</ele>
        <time>2012-03-15T13:40:19Z</time>
      </trkpt>
      <trkpt lat="59.9914533" lon="17.7375859">
        <ele>54.4518</ele>
        <time>2012-03-15T13:40:26Z</time>
      </trkpt>
      <trkpt lat="59.9914796" lon="17.737592">
        <ele>53.9712</ele>
        <time>2012-03-15T13:40:28Z</time>
      </trkpt>
      <trkpt lat="59.9915956" lon="17.7375915">
        <ele>54.4518</ele>
        <time>2012-03-15T13:40:35Z</time>
      </trkpt>
      <trkpt lat="59.9916939" lon="17.7375996">
        <ele>52.0486</ele>
        <time>2012-03-15T13:40:41Z</time>
      </trkpt>
      <trkpt lat="59.9918049" lon="17.7375849">
        <ele>50.6066</ele>
        <time>2012-03-15T13:40:48Z</time>
      </trkpt>
      <trkpt lat="59.991891" lon="17.7375501">
        <ele>49.1646</ele>
        <time>2012-03-15T13:40:54Z</time>
      </trkpt>
      <trkpt lat="59.9919634" lon="17.7375086">
        <ele>51.5679</ele>
        <time>2012-03-15T13:40:59Z</time>
      </trkpt>
      <trkpt lat="59.9920379" lon="17.7374655">
        <ele>53.0098</ele>
        <time>2012-03-15T13:41:04Z</time>
      </trkpt>
      <trkpt lat="59.9921686" lon="17.7374217">
        <ele>53.9712</ele>
        <time>2012-03-15T13:41:12Z</time>
      </trkpt>
      <trkpt lat="59.992199" lon="17.7374219">
        <ele>54.4518</ele>
        <time>2012-03-15T13:41:14Z</time>
      </trkpt>
      <trkpt lat="59.9922101" lon="17.7374546">
        <ele>55.4131</ele>
        <time>2012-03-15T13:41:16Z</time>
      </trkpt>
      <trkpt lat="59.9922059" lon="17.7374869">
        <ele>54.9324</ele>
        <time>2012-03-15T13:41:17Z</time>
      </trkpt>
      <trkpt lat="59.9921364" lon="17.7375541">
        <ele>52.0486</ele>
        <time>2012-03-15T13:41:22Z</time>
      </trkpt>
      <trkpt lat="59.9920163" lon="17.73763">
        <ele>53.4905</ele>
        <time>2012-03-15T13:41:30Z</time>
      </trkpt>
      <trkpt lat="59.9918837" lon="17.737692">
        <ele>55.4131</ele>
        <time>2012-03-15T13:41:39Z</time>
      </trkpt>
      <trkpt lat="59.9917744" lon="17.7376957">
        <ele>57.8165</ele>
        <time>2012-03-15T13:41:46Z</time>
      </trkpt>
      <trkpt lat="59.9916634" lon="17.73771">
        <ele>60.2197</ele>
        <time>2012-03-15T13:41:53Z</time>
      </trkpt>
      <trkpt lat="59.9915795" lon="17.7377193">
        <ele>59.2584</ele>
        <time>2012-03-15T13:41:59Z</time>
      </trkpt>
      <trkpt lat="59.9915069" lon="17.7377033">
        <ele>57.3358</ele>
        <time>2012-03-15T13:42:04Z</time>
      </trkpt>
      <trkpt lat="59.9913921" lon="17.7377002">
        <ele>54.9324</ele>
        <time>2012-03-15T13:42:12Z</time>
      </trkpt>
      <trkpt lat="59.9912299" lon="17.7377428">
        <ele>59.2584</ele>
        <time>2012-03-15T13:42:22Z</time>
      </trkpt>
      <trkpt lat="59.9910902" lon="17.7378349">
        <ele>64.5457</ele>
        <time>2012-03-15T13:42:31Z</time>
      </trkpt>
      <trkpt lat="59.9910276" lon="17.7378826">
        <ele>65.5071</ele>
        <time>2012-03-15T13:42:35Z</time>
      </trkpt>
      <trkpt lat="59.9909293" lon="17.7379597">
        <ele>64.0651</ele>
        <time>2012-03-15T13:42:42Z</time>
      </trkpt>
      <trkpt lat="59.9908667" lon="17.7380184">
        <ele>64.0651</ele>
        <time>2012-03-15T13:42:47Z</time>
      </trkpt>
      <trkpt lat="59.9908451" lon="17.7380407">
        <ele>62.6229</ele>
        <time>2012-03-15T13:42:49Z</time>
      </trkpt>
      <trkpt lat="59.9907308" lon="17.7380601">
        <ele>59.2584</ele>
        <time>2012-03-15T13:42:57Z</time>
      </trkpt>
      <trkpt lat="59.9906551" lon="17.7381038">
        <ele>58.7777</ele>
        <time>2012-03-15T13:43:03Z</time>
      </trkpt>
      <trkpt lat="59.9905895" lon="17.7381555">
        <ele>58.7777</ele>
        <time>2012-03-15T13:43:07Z</time>
      </trkpt>
      <trkpt lat="59.9905025" lon="17.7381743">
        <ele>56.3745</ele>
        <time>2012-03-15T13:43:13Z</time>
      </trkpt>
      <trkpt lat="59.9904757" lon="17.7381852">
        <ele>55.4131</ele>
        <time>2012-03-15T13:43:15Z</time>
      </trkpt>
      <trkpt lat="59.9904188" lon="17.7382054">
        <ele>56.8551</ele>
        <time>2012-03-15T13:43:19Z</time>
      </trkpt>
      <trkpt lat="59.9903011" lon="17.7382567">
        <ele>58.2971</ele>
        <time>2012-03-15T13:43:27Z</time>
      </trkpt>
      <trkpt lat="59.9902091" lon="17.7382707">
        <ele>58.7777</ele>
        <time>2012-03-15T13:43:33Z</time>
      </trkpt>
      <trkpt lat="59.9900843" lon="17.7383168">
        <ele>57.3358</ele>
        <time>2012-03-15T13:43:41Z</time>
      </trkpt>
      <trkpt lat="59.9899653" lon="17.738384">
        <ele>60.2197</ele>
        <time>2012-03-15T13:43:48Z</time>
      </trkpt>
      <trkpt lat="59.9898429" lon="17.7384456">
        <ele>61.181</ele>
        <time>2012-03-15T13:43:56Z</time>
      </trkpt>
      <trkpt lat="59.9897111" lon="17.7385173">
        <ele>62.1423</ele>
        <time>2012-03-15T13:44:04Z</time>
      </trkpt>
      <trkpt lat="59.9895784" lon="17.7385686">
        <ele>62.6229</ele>
        <time>2012-03-15T13:44:13Z</time>
      </trkpt>
      <trkpt lat="59.9894873" lon="17.7386062">
        <ele>62.6229</ele>
        <time>2012-03-15T13:44:19Z</time>
      </trkpt>
      <trkpt lat="59.9893808" lon="17.738624">
        <ele>58.2971</ele>
        <time>2012-03-15T13:44:26Z</time>
      </trkpt>
      <trkpt lat="59.9892931" lon="17.7386563">
        <ele>59.2584</ele>
        <time>2012-03-15T13:44:32Z</time>
      </trkpt>
      <trkpt lat="59.9892215" lon="17.7386808">
        <ele>59.2584</ele>
        <time>2012-03-15T13:44:37Z</time>
      </trkpt>
      <trkpt lat="59.9891331" lon="17.7387477">
        <ele>60.2197</ele>
        <time>2012-03-15T13:44:43Z</time>
      </trkpt>
      <trkpt lat="59.9890617" lon="17.7388135">
        <ele>59.2584</ele>
        <time>2012-03-15T13:44:48Z</time>
      </trkpt>
      <trkpt lat="59.9889977" lon="17.738889">
        <ele>60.2197</ele>
        <time>2012-03-15T13:44:52Z</time>
      </trkpt>
      <trkpt lat="59.9889078" lon="17.7389719">
        <ele>58.7777</ele>
        <time>2012-03-15T13:44:58Z</time>
      </trkpt>
      <trkpt lat="59.9887908" lon="17.7390833">
        <ele>61.181</ele>
        <time>2012-03-15T13:45:05Z</time>
      </trkpt>
      <trkpt lat="59.9886945" lon="17.7391367">
        <ele>61.181</ele>
        <time>2012-03-15T13:45:11Z</time>
      </trkpt>
      <trkpt lat="59.9885949" lon="17.7391912">
        <ele>61.6617</ele>
        <time>2012-03-15T13:45:17Z</time>
      </trkpt>
      <trkpt lat="59.9884916" lon="17.7392393">
        <ele>62.6229</ele>
        <time>2012-03-15T13:45:23Z</time>
      </trkpt>
      <trkpt lat="59.9884725" lon="17.7392523">
        <ele>62.6229</ele>
        <time>2012-03-15T13:45:24Z</time>
      </trkpt>
      <trkpt lat="59.988416" lon="17.7392774">
        <ele>62.6229</ele>
        <time>2012-03-15T13:45:27Z</time>
      </trkpt>
      <trkpt lat="59.9883844" lon="17.7392916">
        <ele>62.1423</ele>
        <time>2012-03-15T13:45:29Z</time>
      </trkpt>
      <trkpt lat="59.9883157" lon="17.7393553">
        <ele>60.7003</ele>
        <time>2012-03-15T13:45:33Z</time>
      </trkpt>
      <trkpt lat="59.9881554" lon="17.7393655">
        <ele>56.3745</ele>
        <time>2012-03-15T13:45:43Z</time>
      </trkpt>
      <trkpt lat="59.9880741" lon="17.7393984">
        <ele>50.126</ele>
        <time>2012-03-15T13:45:50Z</time>
      </trkpt>
      <trkpt lat="59.9879816" lon="17.7394442">
        <ele>47.2418</ele>
        <time>2012-03-15T13:45:55Z</time>
      </trkpt>
      <trkpt lat="59.9878889" lon="17.7394492">
        <ele>44.358</ele>
        <time>2012-03-15T13:46:02Z</time>
      </trkpt>
      <trkpt lat="59.987826" lon="17.7394235">
        <ele>44.8386</ele>
        <time>2012-03-15T13:46:07Z</time>
      </trkpt>
      <trkpt lat="59.9877626" lon="17.7394108">
        <ele>47.2418</ele>
        <time>2012-03-15T13:46:11Z</time>
      </trkpt>
      <trkpt lat="59.9876739" lon="17.7394398">
        <ele>49.6453</ele>
        <time>2012-03-15T13:46:16Z</time>
      </trkpt>
      <trkpt lat="59.9875941" lon="17.7394526">
        <ele>54.9324</ele>
        <time>2012-03-15T13:46:20Z</time>
      </trkpt>
      <trkpt lat="59.9875613" lon="17.7394159">
        <ele>55.8938</ele>
        <time>2012-03-15T13:46:22Z</time>
      </trkpt>
      <trkpt lat="59.9874946" lon="17.7394382">
        <ele>55.8938</ele>
        <time>2012-03-15T13:46:26Z</time>
      </trkpt>
      <trkpt lat="59.9874226" lon="17.7394719">
        <ele>54.9324</ele>
        <time>2012-03-15T13:46:31Z</time>
      </trkpt>
      <trkpt lat="59.9873574" lon="17.7394865">
        <ele>56.8551</ele>
        <time>2012-03-15T13:46:36Z</time>
      </trkpt>
      <trkpt lat="59.9872785" lon="17.7394911">
        <ele>56.3745</ele>
        <time>2012-03-15T13:46:41Z</time>
      </trkpt>
      <trkpt lat="59.9871941" lon="17.7394754">
        <ele>60.2197</ele>
        <time>2012-03-15T13:46:46Z</time>
      </trkpt>
      <trkpt lat="59.9870947" lon="17.7394906">
        <ele>56.3745</ele>
        <time>2012-03-15T13:46:52Z</time>
      </trkpt>
      <trkpt lat="59.9870054" lon="17.7394546">
        <ele>54.4518</ele>
        <time>2012-03-15T13:46:58Z</time>
      </trkpt>
      <trkpt lat="59.9869567" lon="17.7394533">
        <ele>52.0486</ele>
        <time>2012-03-15T13:47:01Z</time>
      </trkpt>
      <trkpt lat="59.9868938" lon="17.7394342">
        <ele>52.0486</ele>
        <time>2012-03-15T13:47:05Z</time>
      </trkpt>
      <trkpt lat="59.9868129" lon="17.7393533">
        <ele>50.6066</ele>
        <time>2012-03-15T13:47:12Z</time>
      </trkpt>
      <trkpt lat="59.9867647" lon="17.7393046">
        <ele>51.0872</ele>
        <time>2012-03-15T13:47:17Z</time>
      </trkpt>
      <trkpt lat="59.9866713" lon="17.7391938">
        <ele>52.0486</ele>
        <time>2012-03-15T13:47:23Z</time>
      </trkpt>
      <trkpt lat="59.9866157" lon="17.7391312">
        <ele>53.0098</ele>
        <time>2012-03-15T13:47:27Z</time>
      </trkpt>
      <trkpt lat="59.9865872" lon="17.7390873">
        <ele>53.9712</ele>
        <time>2012-03-15T13:47:30Z</time>
      </trkpt>
      <trkpt lat="59.9864644" lon="17.7389144">
        <ele>56.3745</ele>
        <time>2012-03-15T13:47:38Z</time>
      </trkpt>
      <trkpt lat="59.9864076" lon="17.7388373">
        <ele>55.8938</ele>
        <time>2012-03-15T13:47:43Z</time>
      </trkpt>
      <trkpt lat="59.9863598" lon="17.7388247">
        <ele>54.4518</ele>
        <time>2012-03-15T13:47:46Z</time>
      </trkpt>
      <trkpt lat="59.9862802" lon="17.7387337">
        <ele>56.3745</ele>
        <time>2012-03-15T13:47:52Z</time>
      </trkpt>
      <trkpt lat="59.9861855" lon="17.7386585">
        <ele>55.4131</ele>
        <time>2012-03-15T13:47:59Z</time>
      </trkpt>
      <trkpt lat="59.9860944" lon="17.7385878">
        <ele>59.2584</ele>
        <time>2012-03-15T13:48:05Z</time>
      </trkpt>
      <trkpt lat="59.9860446" lon="17.7385716">
        <ele>59.2584</ele>
        <time>2012-03-15T13:48:09Z</time>
      </trkpt>
      <trkpt lat="59.9859612" lon="17.7385406">
        <ele>56.3745</ele>
        <time>2012-03-15T13:48:15Z</time>
      </trkpt>
      <trkpt lat="59.9858645" lon="17.7384969">
        <ele>53.9712</ele>
        <time>2012-03-15T13:48:21Z</time>
      </trkpt>
      <trkpt lat="59.9857648" lon="17.7384275">
        <ele>54.4518</ele>
        <time>2012-03-15T13:48:26Z</time>
      </trkpt>
      <trkpt lat="59.9857097" lon="17.7384052">
        <ele>54.4518</ele>
        <time>2012-03-15T13:48:30Z</time>
      </trkpt>
      <trkpt lat="59.985578" lon="17.7383635">
        <ele>55.4131</ele>
        <time>2012-03-15T13:48:38Z</time>
      </trkpt>
      <trkpt lat="59.985481" lon="17.7383486">
        <ele>58.2971</ele>
        <time>2012-03-15T13:48:44Z</time>
      </trkpt>
      <trkpt lat="59.9853958" lon="17.7383531">
        <ele>53.9712</ele>
        <time>2012-03-15T13:48:50Z</time>
      </trkpt>
      <trkpt lat="59.9852965" lon="17.7382971">
        <ele>53.9712</ele>
        <time>2012-03-15T13:48:56Z</time>
      </trkpt>
      <trkpt lat="59.9852178" lon="17.7382728">
        <ele>49.1646</ele>
        <time>2012-03-15T13:49:01Z</time>
      </trkpt>
      <trkpt lat="59.9852048" lon="17.7382746">
        <ele>48.2034</ele>
        <time>2012-03-15T13:49:02Z</time>
      </trkpt>
      <trkpt lat="59.9851413" lon="17.7382634">
        <ele>46.2806</ele>
        <time>2012-03-15T13:49:07Z</time>
      </trkpt>
      <trkpt lat="59.9850665" lon="17.7382722">
        <ele>44.8386</ele>
        <time>2012-03-15T13:49:13Z</time>
      </trkpt>
      <trkpt lat="59.9849951" lon="17.738267">
        <ele>41.9547</ele>
        <time>2012-03-15T13:49:19Z</time>
      </trkpt>
      <trkpt lat="59.9849051" lon="17.7382612">
        <ele>39.5513</ele>
        <time>2012-03-15T13:49:25Z</time>
      </trkpt>
      <trkpt lat="59.9847927" lon="17.7382327">
        <ele>38.1094</ele>
        <time>2012-03-15T13:49:31Z</time>
      </trkpt>
      <trkpt lat="59.9847161" lon="17.738181">
        <ele>42.916</ele>
        <time>2012-03-15T13:49:36Z</time>
      </trkpt>
      <trkpt lat="59.984659" lon="17.7381281">
        <ele>43.8773</ele>
        <time>2012-03-15T13:49:40Z</time>
      </trkpt>
      <trkpt lat="59.9845668" lon="17.7380964">
        <ele>46.2806</ele>
        <time>2012-03-15T13:49:46Z</time>
      </trkpt>
      <trkpt lat="59.9845347" lon="17.7380957">
        <ele>45.3192</ele>
        <time>2012-03-15T13:49:48Z</time>
      </trkpt>
      <trkpt lat="59.9844714" lon="17.7381007">
        <ele>46.2806</ele>
        <time>2012-03-15T13:49:52Z</time>
      </trkpt>
      <trkpt lat="59.984374" lon="17.7380946">
        <ele>46.7612</ele>
        <time>2012-03-15T13:49:58Z</time>
      </trkpt>
      <trkpt lat="59.984313" lon="17.7380562">
        <ele>49.6453</ele>
        <time>2012-03-15T13:50:01Z</time>
      </trkpt>
      <trkpt lat="59.9841331" lon="17.7380127">
        <ele>51.5679</ele>
        <time>2012-03-15T13:50:11Z</time>
      </trkpt>
      <trkpt lat="59.9841089" lon="17.7380075">
        <ele>49.6453</ele>
        <time>2012-03-15T13:50:13Z</time>
      </trkpt>
      <trkpt lat="59.9839989" lon="17.7379862">
        <ele>49.1646</ele>
        <time>2012-03-15T13:50:20Z</time>
      </trkpt>
      <trkpt lat="59.9838992" lon="17.7380246">
        <ele>47.7225</ele>
        <time>2012-03-15T13:50:26Z</time>
      </trkpt>
      <trkpt lat="59.9838157" lon="17.7380779">
        <ele>47.2418</ele>
        <time>2012-03-15T13:50:32Z</time>
      </trkpt>
      <trkpt lat="59.9837748" lon="17.7380831">
        <ele>46.2806</ele>
        <time>2012-03-15T13:50:36Z</time>
      </trkpt>
      <trkpt lat="59.9836949" lon="17.7381011">
        <ele>45.7999</ele>
        <time>2012-03-15T13:50:41Z</time>
      </trkpt>
      <trkpt lat="59.9836049" lon="17.7381017">
        <ele>47.7225</ele>
        <time>2012-03-15T13:50:47Z</time>
      </trkpt>
      <trkpt lat="59.9835303" lon="17.7381273">
        <ele>47.7225</ele>
        <time>2012-03-15T13:50:51Z</time>
      </trkpt>
      <trkpt lat="59.9835064" lon="17.7381334">
        <ele>47.2418</ele>
        <time>2012-03-15T13:50:53Z</time>
      </trkpt>
      <trkpt lat="59.9834376" lon="17.738151">
        <ele>47.7225</ele>
        <time>2012-03-15T13:50:58Z</time>
      </trkpt>
      <trkpt lat="59.98339" lon="17.7381639">
        <ele>45.7999</ele>
        <time>2012-03-15T13:51:01Z</time>
      </trkpt>
      <trkpt lat="59.9833151" lon="17.7381964">
        <ele>44.8386</ele>
        <time>2012-03-15T13:51:05Z</time>
      </trkpt>
      <trkpt lat="59.9832398" lon="17.7382077">
        <ele>46.7612</ele>
        <time>2012-03-15T13:51:09Z</time>
      </trkpt>
      <trkpt lat="59.9831221" lon="17.7381927">
        <ele>46.2806</ele>
        <time>2012-03-15T13:51:16Z</time>
      </trkpt>
      <trkpt lat="59.9830575" lon="17.7382093">
        <ele>43.3966</ele>
        <time>2012-03-15T13:51:21Z</time>
      </trkpt>
      <trkpt lat="59.9830127" lon="17.7382238">
        <ele>40.9934</ele>
        <time>2012-03-15T13:51:24Z</time>
      </trkpt>
      <trkpt lat="59.9829816" lon="17.7382354">
        <ele>39.5513</ele>
        <time>2012-03-15T13:51:28Z</time>
      </trkpt>
      <trkpt lat="59.9828449" lon="17.7381853">
        <ele>40.9934</ele>
        <time>2012-03-15T13:51:36Z</time>
      </trkpt>
      <trkpt lat="59.98277" lon="17.7381385">
        <ele>43.3966</ele>
        <time>2012-03-15T13:51:41Z</time>
      </trkpt>
      <trkpt lat="59.9826715" lon="17.7381484">
        <ele>43.8773</ele>
        <time>2012-03-15T13:51:48Z</time>
      </trkpt>
      <trkpt lat="59.9825824" lon="17.7381488">
        <ele>46.7612</ele>
        <time>2012-03-15T13:51:54Z</time>
      </trkpt>
      <trkpt lat="59.9825098" lon="17.7381418">
        <ele>46.7612</ele>
        <time>2012-03-15T13:51:59Z</time>
      </trkpt>
      <trkpt lat="59.9824524" lon="17.7381384">
        <ele>46.2806</ele>
        <time>2012-03-15T13:52:03Z</time>
      </trkpt>
      <trkpt lat="59.9823367" lon="17.7381763">
        <ele>46.2806</ele>
        <time>2012-03-15T13:52:10Z</time>
      </trkpt>
      <trkpt lat="59.9822253" lon="17.7382181">
        <ele>49.6453</ele>
        <time>2012-03-15T13:52:16Z</time>
      </trkpt>
      <trkpt lat="59.9820902" lon="17.7382785">
        <ele>51.5679</ele>
        <time>2012-03-15T13:52:24Z</time>
      </trkpt>
      <trkpt lat="59.9819757" lon="17.7383306">
        <ele>50.126</ele>
        <time>2012-03-15T13:52:31Z</time>
      </trkpt>
      <trkpt lat="59.9818623" lon="17.7383986">
        <ele>50.126</ele>
        <time>2012-03-15T13:52:38Z</time>
      </trkpt>
      <trkpt lat="59.9817599" lon="17.7384442">
        <ele>48.684</ele>
        <time>2012-03-15T13:52:45Z</time>
      </trkpt>
      <trkpt lat="59.9816723" lon="17.7384642">
        <ele>48.684</ele>
        <time>2012-03-15T13:52:52Z</time>
      </trkpt>
      <trkpt lat="59.9815967" lon="17.7384782">
        <ele>46.7612</ele>
        <time>2012-03-15T13:52:58Z</time>
      </trkpt>
      <trkpt lat="59.9814904" lon="17.7385168">
        <ele>46.7612</ele>
        <time>2012-03-15T13:53:05Z</time>
      </trkpt>
      <trkpt lat="59.9814049" lon="17.7385457">
        <ele>45.3192</ele>
        <time>2012-03-15T13:53:10Z</time>
      </trkpt>
      <trkpt lat="59.9813111" lon="17.7385882">
        <ele>45.7999</ele>
        <time>2012-03-15T13:53:16Z</time>
      </trkpt>
      <trkpt lat="59.9812573" lon="17.738596">
        <ele>45.3192</ele>
        <time>2012-03-15T13:53:20Z</time>
      </trkpt>
      <trkpt lat="59.9812381" lon="17.7385932">
        <ele>44.358</ele>
        <time>2012-03-15T13:53:22Z</time>
      </trkpt>
      <trkpt lat="59.9811577" lon="17.7385887">
        <ele>40.0321</ele>
        <time>2012-03-15T13:53:28Z</time>
      </trkpt>
      <trkpt lat="59.9811261" lon="17.7385944">
        <ele>39.5513</ele>
        <time>2012-03-15T13:53:30Z</time>
      </trkpt>
      <trkpt lat="59.9810004" lon="17.7386783">
        <ele>41.9547</ele>
        <time>2012-03-15T13:53:37Z</time>
      </trkpt>
      <trkpt lat="59.9809738" lon="17.7387012">
        <ele>42.916</ele>
        <time>2012-03-15T13:53:39Z</time>
      </trkpt>
      <trkpt lat="59.9808981" lon="17.7387313">
        <ele>44.358</ele>
        <time>2012-03-15T13:53:44Z</time>
      </trkpt>
      <trkpt lat="59.9808145" lon="17.7387771">
        <ele>43.3966</ele>
        <time>2012-03-15T13:53:50Z</time>
      </trkpt>
      <trkpt lat="59.9807812" lon="17.7387824">
        <ele>44.358</ele>
        <time>2012-03-15T13:53:52Z</time>
      </trkpt>
      <trkpt lat="59.9807055" lon="17.7387885">
        <ele>44.358</ele>
        <time>2012-03-15T13:53:57Z</time>
      </trkpt>
      <trkpt lat="59.9805672" lon="17.7388143">
        <ele>44.8386</ele>
        <time>2012-03-15T13:54:06Z</time>
      </trkpt>
      <trkpt lat="59.9805288" lon="17.7388162">
        <ele>43.8773</ele>
        <time>2012-03-15T13:54:09Z</time>
      </trkpt>
      <trkpt lat="59.9804699" lon="17.7388402">
        <ele>42.4354</ele>
        <time>2012-03-15T13:54:13Z</time>
      </trkpt>
      <trkpt lat="59.9803609" lon="17.7388309">
        <ele>41.474</ele>
        <time>2012-03-15T13:54:20Z</time>
      </trkpt>
      <trkpt lat="59.9802529" lon="17.738856">
        <ele>40.9934</ele>
        <time>2012-03-15T13:54:27Z</time>
      </trkpt>
      <trkpt lat="59.9801907" lon="17.738841">
        <ele>39.0707</ele>
        <time>2012-03-15T13:54:31Z</time>
      </trkpt>
      <trkpt lat="59.9800939" lon="17.7388337">
        <ele>39.0707</ele>
        <time>2012-03-15T13:54:37Z</time>
      </trkpt>
      <trkpt lat="59.9800048" lon="17.7388187">
        <ele>39.0707</ele>
        <time>2012-03-15T13:54:43Z</time>
      </trkpt>
      <trkpt lat="59.9799147" lon="17.738814">
        <ele>38.5901</ele>
        <time>2012-03-15T13:54:49Z</time>
      </trkpt>
      <trkpt lat="59.9798985" lon="17.7388135">
        <ele>38.5901</ele>
        <time>2012-03-15T13:54:50Z</time>
      </trkpt>
      <trkpt lat="59.9797969" lon="17.7388363">
        <ele>38.5901</ele>
        <time>2012-03-15T13:54:57Z</time>
      </trkpt>
      <trkpt lat="59.9796953" lon="17.7388879">
        <ele>39.0707</ele>
        <time>2012-03-15T13:55:04Z</time>
      </trkpt>
      <trkpt lat="59.9796033" lon="17.7389274">
        <ele>38.1094</ele>
        <time>2012-03-15T13:55:10Z</time>
      </trkpt>
      <trkpt lat="59.9795324" lon="17.7389644">
        <ele>37.1481</ele>
        <time>2012-03-15T13:55:16Z</time>
      </trkpt>
      <trkpt lat="59.9794552" lon="17.7390055">
        <ele>38.1094</ele>
        <time>2012-03-15T13:55:21Z</time>
      </trkpt>
      <trkpt lat="59.979351" lon="17.7390897">
        <ele>38.5901</ele>
        <time>2012-03-15T13:55:27Z</time>
      </trkpt>
      <trkpt lat="59.979241" lon="17.7391716">
        <ele>38.5901</ele>
        <time>2012-03-15T13:55:34Z</time>
      </trkpt>
      <trkpt lat="59.9791047" lon="17.7392474">
        <ele>39.0707</ele>
        <time>2012-03-15T13:55:43Z</time>
      </trkpt>
      <trkpt lat="59.9790908" lon="17.7392574">
        <ele>38.5901</ele>
        <time>2012-03-15T13:55:44Z</time>
      </trkpt>
      <trkpt lat="59.978991" lon="17.739302">
        <ele>38.5901</ele>
        <time>2012-03-15T13:55:50Z</time>
      </trkpt>
      <trkpt lat="59.9789776" lon="17.7393024">
        <ele>38.5901</ele>
        <time>2012-03-15T13:55:51Z</time>
      </trkpt>
      <trkpt lat="59.9789371" lon="17.7393191">
        <ele>37.6287</ele>
        <time>2012-03-15T13:55:54Z</time>
      </trkpt>
      <trkpt lat="59.9788656" lon="17.7393532">
        <ele>36.6675</ele>
        <time>2012-03-15T13:55:58Z</time>
      </trkpt>
      <trkpt lat="59.9788516" lon="17.7393533">
        <ele>36.1868</ele>
        <time>2012-03-15T13:55:59Z</time>
      </trkpt>
      <trkpt lat="59.9788268" lon="17.7393494">
        <ele>35.7061</ele>
        <time>2012-03-15T13:56:01Z</time>
      </trkpt>
      <trkpt lat="59.9787739" lon="17.7393492">
        <ele>35.2255</ele>
        <time>2012-03-15T13:56:05Z</time>
      </trkpt>
      <trkpt lat="59.9786755" lon="17.7393087">
        <ele>34.7449</ele>
        <time>2012-03-15T13:56:13Z</time>
      </trkpt>
      <trkpt lat="59.9785999" lon="17.7392842">
        <ele>34.7449</ele>
        <time>2012-03-15T13:56:19Z</time>
      </trkpt>
      <trkpt lat="59.9784539" lon="17.7392642">
        <ele>34.7449</ele>
        <time>2012-03-15T13:56:28Z</time>
      </trkpt>
      <trkpt lat="59.9783394" lon="17.7392507">
        <ele>36.1868</ele>
        <time>2012-03-15T13:56:35Z</time>
      </trkpt>
      <trkpt lat="59.9782191" lon="17.739223">
        <ele>36.6675</ele>
        <time>2012-03-15T13:56:42Z</time>
      </trkpt>
      <trkpt lat="59.9781243" lon="17.7391906">
        <ele>36.1868</ele>
        <time>2012-03-15T13:56:48Z</time>
      </trkpt>
      <trkpt lat="59.9780501" lon="17.7391796">
        <ele>36.1868</ele>
        <time>2012-03-15T13:56:53Z</time>
      </trkpt>
      <trkpt lat="59.97803" lon="17.7391811">
        <ele>35.7061</ele>
        <time>2012-03-15T13:56:54Z</time>
      </trkpt>
      <trkpt lat="59.9779295" lon="17.7391075">
        <ele>35.2255</ele>
        <time>2012-03-15T13:57:00Z</time>
      </trkpt>
      <trkpt lat="59.9778351" lon="17.7390574">
        <ele>34.7449</ele>
        <time>2012-03-15T13:57:06Z</time>
      </trkpt>
      <trkpt lat="59.9777405" lon="17.7390265">
        <ele>34.7449</ele>
        <time>2012-03-15T13:57:12Z</time>
      </trkpt>
      <trkpt lat="59.9776616" lon="17.7390109">
        <ele>34.2642</ele>
        <time>2012-03-15T13:57:17Z</time>
      </trkpt>
      <trkpt lat="59.9775266" lon="17.7390232">
        <ele>33.7834</ele>
        <time>2012-03-15T13:57:25Z</time>
      </trkpt>
      <trkpt lat="59.9774961" lon="17.7390295">
        <ele>33.7834</ele>
        <time>2012-03-15T13:57:27Z</time>
      </trkpt>
      <trkpt lat="59.977395" lon="17.7390632">
        <ele>33.7834</ele>
        <time>2012-03-15T13:57:34Z</time>
      </trkpt>
      <trkpt lat="59.9772784" lon="17.7391362">
        <ele>32.8223</ele>
        <time>2012-03-15T13:57:41Z</time>
      </trkpt>
      <trkpt lat="59.9771816" lon="17.7392215">
        <ele>32.3416</ele>
        <time>2012-03-15T13:57:48Z</time>
      </trkpt>
      <trkpt lat="59.977083" lon="17.7392833">
        <ele>31.3801</ele>
        <time>2012-03-15T13:57:55Z</time>
      </trkpt>
      <trkpt lat="59.9769639" lon="17.7393325">
        <ele>31.3801</ele>
        <time>2012-03-15T13:58:03Z</time>
      </trkpt>
      <trkpt lat="59.9768401" lon="17.7393818">
        <ele>30.8995</ele>
        <time>2012-03-15T13:58:11Z</time>
      </trkpt>
      <trkpt lat="59.9767294" lon="17.7394356">
        <ele>31.8607</ele>
        <time>2012-03-15T13:58:18Z</time>
      </trkpt>
      <trkpt lat="59.9766506" lon="17.7394802">
        <ele>31.8607</ele>
        <time>2012-03-15T13:58:23Z</time>
      </trkpt>
      <trkpt lat="59.9765939" lon="17.7395254">
        <ele>32.3416</ele>
        <time>2012-03-15T13:58:27Z</time>
      </trkpt>
      <trkpt lat="59.9764842" lon="17.7396815">
        <ele>33.3029</ele>
        <time>2012-03-15T13:58:35Z</time>
      </trkpt>
      <trkpt lat="59.9764086" lon="17.7398449">
        <ele>35.2255</ele>
        <time>2012-03-15T13:58:42Z</time>
      </trkpt>
      <trkpt lat="59.9763166" lon="17.7401208">
        <ele>36.6675</ele>
        <time>2012-03-15T13:58:52Z</time>
      </trkpt>
      <trkpt lat="59.976236" lon="17.7403449">
        <ele>36.1868</ele>
        <time>2012-03-15T13:59:00Z</time>
      </trkpt>
      <trkpt lat="59.9761785" lon="17.7405231">
        <ele>35.2255</ele>
        <time>2012-03-15T13:59:07Z</time>
      </trkpt>
      <trkpt lat="59.9761274" lon="17.7406602">
        <ele>34.7449</ele>
        <time>2012-03-15T13:59:12Z</time>
      </trkpt>
      <trkpt lat="59.9760773" lon="17.7408263">
        <ele>34.7449</ele>
        <time>2012-03-15T13:59:18Z</time>
      </trkpt>
      <trkpt lat="59.9760182" lon="17.7410233">
        <ele>35.2255</ele>
        <time>2012-03-15T13:59:25Z</time>
      </trkpt>
      <trkpt lat="59.97599" lon="17.7411583">
        <ele>35.7061</ele>
        <time>2012-03-15T13:59:30Z</time>
      </trkpt>
      <trkpt lat="59.9759291" lon="17.7413612">
        <ele>34.7449</ele>
        <time>2012-03-15T13:59:37Z</time>
      </trkpt>
      <trkpt lat="59.9758974" lon="17.7414688">
        <ele>33.3029</ele>
        <time>2012-03-15T13:59:41Z</time>
      </trkpt>
      <trkpt lat="59.975855" lon="17.7416258">
        <ele>32.3416</ele>
        <time>2012-03-15T13:59:47Z</time>
      </trkpt>
      <trkpt lat="59.9758103" lon="17.7417875">
        <ele>31.8607</ele>
        <time>2012-03-15T13:59:53Z</time>
      </trkpt>
      <trkpt lat="59.9757644" lon="17.7419868">
        <ele>32.8223</ele>
        <time>2012-03-15T14:00:00Z</time>
      </trkpt>
      <trkpt lat="59.9757006" lon="17.742262">
        <ele>34.2642</ele>
        <time>2012-03-15T14:00:10Z</time>
      </trkpt>
      <trkpt lat="59.9756685" lon="17.7423981">
        <ele>34.7449</ele>
        <time>2012-03-15T14:00:15Z</time>
      </trkpt>
      <trkpt lat="59.9756145" lon="17.7425939">
        <ele>34.7449</ele>
        <time>2012-03-15T14:00:22Z</time>
      </trkpt>
      <trkpt lat="59.975568" lon="17.7427632">
        <ele>34.7449</ele>
        <time>2012-03-15T14:00:28Z</time>
      </trkpt>
      <trkpt lat="59.9755514" lon="17.7429155">
        <ele>34.2642</ele>
        <time>2012-03-15T14:00:34Z</time>
      </trkpt>
      <trkpt lat="59.975546" lon="17.742942">
        <ele>34.2642</ele>
        <time>2012-03-15T14:00:35Z</time>
      </trkpt>
      <trkpt lat="59.9754882" lon="17.7431713">
        <ele>34.2642</ele>
        <time>2012-03-15T14:00:43Z</time>
      </trkpt>
      <trkpt lat="59.9754236" lon="17.7433772">
        <ele>34.2642</ele>
        <time>2012-03-15T14:00:50Z</time>
      </trkpt>
      <trkpt lat="59.9753749" lon="17.7436078">
        <ele>33.7834</ele>
        <time>2012-03-15T14:00:58Z</time>
      </trkpt>
      <trkpt lat="59.975339" lon="17.7438071">
        <ele>32.3416</ele>
        <time>2012-03-15T14:01:05Z</time>
      </trkpt>
      <trkpt lat="59.975292" lon="17.7440475">
        <ele>31.8607</ele>
        <time>2012-03-15T14:01:13Z</time>
      </trkpt>
      <trkpt lat="59.9752567" lon="17.7442148">
        <ele>30.4188</ele>
        <time>2012-03-15T14:01:19Z</time>
      </trkpt>
      <trkpt lat="59.975216" lon="17.7443866">
        <ele>29.4575</ele>
        <time>2012-03-15T14:01:25Z</time>
      </trkpt>
      <trkpt lat="59.9751917" lon="17.7445624">
        <ele>29.9381</ele>
        <time>2012-03-15T14:01:31Z</time>
      </trkpt>
      <trkpt lat="59.9751422" lon="17.7447608">
        <ele>28.0155</ele>
        <time>2012-03-15T14:01:38Z</time>
      </trkpt>
      <trkpt lat="59.9750786" lon="17.7449187">
        <ele>28.4962</ele>
        <time>2012-03-15T14:01:44Z</time>
      </trkpt>
      <trkpt lat="59.9750168" lon="17.7450871">
        <ele>29.4575</ele>
        <time>2012-03-15T14:01:51Z</time>
      </trkpt>
      <trkpt lat="59.9749632" lon="17.7452384">
        <ele>29.9381</ele>
        <time>2012-03-15T14:01:56Z</time>
      </trkpt>
      <trkpt lat="59.9749085" lon="17.7453871">
        <ele>30.8995</ele>
        <time>2012-03-15T14:02:02Z</time>
      </trkpt>
      <trkpt lat="59.9748639" lon="17.7455469">
        <ele>31.3801</ele>
        <time>2012-03-15T14:02:09Z</time>
      </trkpt>
      <trkpt lat="59.9748019" lon="17.7456885">
        <ele>31.8607</ele>
        <time>2012-03-15T14:02:16Z</time>
      </trkpt>
      <trkpt lat="59.974697" lon="17.7459103">
        <ele>32.3416</ele>
        <time>2012-03-15T14:02:26Z</time>
      </trkpt>
      <trkpt lat="59.9745965" lon="17.746118">
        <ele>33.3029</ele>
        <time>2012-03-15T14:02:35Z</time>
      </trkpt>
      <trkpt lat="59.9745542" lon="17.7461997">
        <ele>35.2255</ele>
        <time>2012-03-15T14:02:40Z</time>
      </trkpt>
      <trkpt lat="59.9745463" lon="17.7462133">
        <ele>35.7061</ele>
        <time>2012-03-15T14:02:41Z</time>
      </trkpt>
      <trkpt lat="59.9744526" lon="17.7463341">
        <ele>36.6675</ele>
        <time>2012-03-15T14:02:49Z</time>
      </trkpt>
      <trkpt lat="59.9743491" lon="17.7464859">
        <ele>36.1868</ele>
        <time>2012-03-15T14:02:57Z</time>
      </trkpt>
      <trkpt lat="59.9742334" lon="17.7466394">
        <ele>36.1868</ele>
        <time>2012-03-15T14:03:05Z</time>
      </trkpt>
      <trkpt lat="59.9741005" lon="17.7468034">
        <ele>37.1481</ele>
        <time>2012-03-15T14:03:15Z</time>
      </trkpt>
      <trkpt lat="59.9740243" lon="17.7468964">
        <ele>37.6287</ele>
        <time>2012-03-15T14:03:22Z</time>
      </trkpt>
      <trkpt lat="59.9739595" lon="17.7469753">
        <ele>37.1481</ele>
        <time>2012-03-15T14:03:27Z</time>
      </trkpt>
      <trkpt lat="59.9738628" lon="17.7470898">
        <ele>35.7061</ele>
        <time>2012-03-15T14:03:35Z</time>
      </trkpt>
      <trkpt lat="59.9738368" lon="17.7471249">
        <ele>35.7061</ele>
        <time>2012-03-15T14:03:37Z</time>
      </trkpt>
      <trkpt lat="59.9737695" lon="17.7472209">
        <ele>38.1094</ele>
        <time>2012-03-15T14:03:43Z</time>
      </trkpt>
      <trkpt lat="59.9736478" lon="17.7473439">
        <ele>38.5901</ele>
        <time>2012-03-15T14:03:51Z</time>
      </trkpt>
      <trkpt lat="59.9735534" lon="17.7474411">
        <ele>37.6287</ele>
        <time>2012-03-15T14:03:57Z</time>
      </trkpt>
      <trkpt lat="59.9734349" lon="17.7475659">
        <ele>35.7061</ele>
        <time>2012-03-15T14:04:05Z</time>
      </trkpt>
      <trkpt lat="59.9733161" lon="17.7476863">
        <ele>34.7449</ele>
        <time>2012-03-15T14:04:13Z</time>
      </trkpt>
      <trkpt lat="59.973289" lon="17.7477124">
        <ele>34.2642</ele>
        <time>2012-03-15T14:04:15Z</time>
      </trkpt>
      <trkpt lat="59.9731794" lon="17.7478404">
        <ele>34.2642</ele>
        <time>2012-03-15T14:04:23Z</time>
      </trkpt>
      <trkpt lat="59.9730997" lon="17.7479437">
        <ele>34.2642</ele>
        <time>2012-03-15T14:04:29Z</time>
      </trkpt>
      <trkpt lat="59.9729997" lon="17.7480765">
        <ele>34.7449</ele>
        <time>2012-03-15T14:04:36Z</time>
      </trkpt>
      <trkpt lat="59.9729591" lon="17.7481344">
        <ele>35.2255</ele>
        <time>2012-03-15T14:04:39Z</time>
      </trkpt>
      <trkpt lat="59.9728759" lon="17.7483065">
        <ele>35.2255</ele>
        <time>2012-03-15T14:04:47Z</time>
      </trkpt>
      <trkpt lat="59.9728215" lon="17.7484361">
        <ele>35.2255</ele>
        <time>2012-03-15T14:04:53Z</time>
      </trkpt>
      <trkpt lat="59.9727385" lon="17.7485795">
        <ele>35.7061</ele>
        <time>2012-03-15T14:04:59Z</time>
      </trkpt>
      <trkpt lat="59.9727158" lon="17.7486277">
        <ele>35.7061</ele>
        <time>2012-03-15T14:05:01Z</time>
      </trkpt>
      <trkpt lat="59.9726649" lon="17.7487377">
        <ele>36.1868</ele>
        <time>2012-03-15T14:05:06Z</time>
      </trkpt>
      <trkpt lat="59.9725713" lon="17.748938">
        <ele>35.7061</ele>
        <time>2012-03-15T14:05:14Z</time>
      </trkpt>
      <trkpt lat="59.9724879" lon="17.7491241">
        <ele>33.7834</ele>
        <time>2012-03-15T14:05:22Z</time>
      </trkpt>
      <trkpt lat="59.9724269" lon="17.7492508">
        <ele>33.3029</ele>
        <time>2012-03-15T14:05:29Z</time>
      </trkpt>
      <trkpt lat="59.9723986" lon="17.7493208">
        <ele>33.7834</ele>
        <time>2012-03-15T14:05:32Z</time>
      </trkpt>
      <trkpt lat="59.9723247" lon="17.7494823">
        <ele>32.3416</ele>
        <time>2012-03-15T14:05:39Z</time>
      </trkpt>
      <trkpt lat="59.9722575" lon="17.7496751">
        <ele>31.8607</ele>
        <time>2012-03-15T14:05:47Z</time>
      </trkpt>
      <trkpt lat="59.972206" lon="17.7498042">
        <ele>31.8607</ele>
        <time>2012-03-15T14:05:52Z</time>
      </trkpt>
      <trkpt lat="59.9721532" lon="17.7499006">
        <ele>32.3416</ele>
        <time>2012-03-15T14:05:57Z</time>
      </trkpt>
      <trkpt lat="59.9721455" lon="17.7499042">
        <ele>32.3416</ele>
        <time>2012-03-15T14:05:58Z</time>
      </trkpt>
      <trkpt lat="59.9721263" lon="17.7498316">
        <ele>30.8995</ele>
        <time>2012-03-15T14:06:02Z</time>
      </trkpt>
      <trkpt lat="59.972176" lon="17.7496829">
        <ele>29.9381</ele>
        <time>2012-03-15T14:06:09Z</time>
      </trkpt>
      <trkpt lat="59.9722517" lon="17.7495155">
        <ele>29.9381</ele>
        <time>2012-03-15T14:06:16Z</time>
      </trkpt>
      <trkpt lat="59.9723351" lon="17.749369">
        <ele>31.3801</ele>
        <time>2012-03-15T14:06:23Z</time>
      </trkpt>
      <trkpt lat="59.9724121" lon="17.7491649">
        <ele>29.9381</ele>
        <time>2012-03-15T14:06:32Z</time>
      </trkpt>
      <trkpt lat="59.972463" lon="17.7490209">
        <ele>28.4962</ele>
        <time>2012-03-15T14:06:38Z</time>
      </trkpt>
      <trkpt lat="59.9725376" lon="17.7488717">
        <ele>28.0155</ele>
        <time>2012-03-15T14:06:45Z</time>
      </trkpt>
      <trkpt lat="59.9726234" lon="17.7487107">
        <ele>28.0155</ele>
        <time>2012-03-15T14:06:53Z</time>
      </trkpt>
      <trkpt lat="59.9726801" lon="17.7485578">
        <ele>27.5349</ele>
        <time>2012-03-15T14:06:59Z</time>
      </trkpt>
      <trkpt lat="59.9727759" lon="17.7483716">
        <ele>27.0543</ele>
        <time>2012-03-15T14:07:07Z</time>
      </trkpt>
      <trkpt lat="59.9728407" lon="17.7482376">
        <ele>25.6123</ele>
        <time>2012-03-15T14:07:13Z</time>
      </trkpt>
      <trkpt lat="59.9729017" lon="17.7481328">
        <ele>25.6123</ele>
        <time>2012-03-15T14:07:18Z</time>
      </trkpt>
      <trkpt lat="59.9729825" lon="17.7480144">
        <ele>22.2476</ele>
        <time>2012-03-15T14:07:25Z</time>
      </trkpt>
      <trkpt lat="59.9731041" lon="17.7478512">
        <ele>23.6896</ele>
        <time>2012-03-15T14:07:34Z</time>
      </trkpt>
      <trkpt lat="59.9732044" lon="17.7477262">
        <ele>24.651</ele>
        <time>2012-03-15T14:07:42Z</time>
      </trkpt>
      <trkpt lat="59.9732887" lon="17.7476481">
        <ele>24.651</ele>
        <time>2012-03-15T14:07:48Z</time>
      </trkpt>
      <trkpt lat="59.9733295" lon="17.7475991">
        <ele>25.1317</ele>
        <time>2012-03-15T14:07:51Z</time>
      </trkpt>
      <trkpt lat="59.973442" lon="17.7474496">
        <ele>26.5736</ele>
        <time>2012-03-15T14:08:00Z</time>
      </trkpt>
      <trkpt lat="59.9735638" lon="17.7473415">
        <ele>26.5736</ele>
        <time>2012-03-15T14:08:09Z</time>
      </trkpt>
      <trkpt lat="59.9736317" lon="17.7472686">
        <ele>25.1317</ele>
        <time>2012-03-15T14:08:15Z</time>
      </trkpt>
      <trkpt lat="59.9737207" lon="17.7471579">
        <ele>25.1317</ele>
        <time>2012-03-15T14:08:22Z</time>
      </trkpt>
      <trkpt lat="59.9737361" lon="17.7471504">
        <ele>25.1317</ele>
        <time>2012-03-15T14:08:23Z</time>
      </trkpt>
      <trkpt lat="59.9738285" lon="17.7470358">
        <ele>26.5736</ele>
        <time>2012-03-15T14:08:30Z</time>
      </trkpt>
      <trkpt lat="59.9739254" lon="17.7469108">
        <ele>27.0543</ele>
        <time>2012-03-15T14:08:37Z</time>
      </trkpt>
      <trkpt lat="59.9740345" lon="17.7467862">
        <ele>27.0543</ele>
        <time>2012-03-15T14:08:45Z</time>
      </trkpt>
      <trkpt lat="59.9741393" lon="17.7466593">
        <ele>27.5349</ele>
        <time>2012-03-15T14:08:53Z</time>
      </trkpt>
      <trkpt lat="59.9742387" lon="17.7464976">
        <ele>28.4962</ele>
        <time>2012-03-15T14:09:01Z</time>
      </trkpt>
      <trkpt lat="59.9743147" lon="17.7463838">
        <ele>28.4962</ele>
        <time>2012-03-15T14:09:07Z</time>
      </trkpt>
      <trkpt lat="59.9744294" lon="17.7462055">
        <ele>29.4575</ele>
        <time>2012-03-15T14:09:16Z</time>
      </trkpt>
      <trkpt lat="59.9745149" lon="17.7460541">
        <ele>29.9381</ele>
        <time>2012-03-15T14:09:23Z</time>
      </trkpt>
      <trkpt lat="59.9746018" lon="17.7459243">
        <ele>30.8995</ele>
        <time>2012-03-15T14:09:30Z</time>
      </trkpt>
      <trkpt lat="59.97468" lon="17.7457759">
        <ele>30.4188</ele>
        <time>2012-03-15T14:09:37Z</time>
      </trkpt>
      <trkpt lat="59.9747505" lon="17.7456301">
        <ele>28.4962</ele>
        <time>2012-03-15T14:09:44Z</time>
      </trkpt>
      <trkpt lat="59.9748172" lon="17.7454491">
        <ele>28.9769</ele>
        <time>2012-03-15T14:09:51Z</time>
      </trkpt>
      <trkpt lat="59.9748814" lon="17.7452736">
        <ele>28.9769</ele>
        <time>2012-03-15T14:09:58Z</time>
      </trkpt>
      <trkpt lat="59.9749572" lon="17.7450391">
        <ele>28.9769</ele>
        <time>2012-03-15T14:10:06Z</time>
      </trkpt>
      <trkpt lat="59.975023" lon="17.744841">
        <ele>28.4962</ele>
        <time>2012-03-15T14:10:13Z</time>
      </trkpt>
      <trkpt lat="59.9751001" lon="17.7445852">
        <ele>30.4188</ele>
        <time>2012-03-15T14:10:22Z</time>
      </trkpt>
      <trkpt lat="59.9751795" lon="17.744292">
        <ele>32.3416</ele>
        <time>2012-03-15T14:10:32Z</time>
      </trkpt>
      <trkpt lat="59.9752318" lon="17.7440305">
        <ele>33.7834</ele>
        <time>2012-03-15T14:10:41Z</time>
      </trkpt>
      <trkpt lat="59.975286" lon="17.7437451">
        <ele>33.3029</ele>
        <time>2012-03-15T14:10:51Z</time>
      </trkpt>
      <trkpt lat="59.9752956" lon="17.7436238">
        <ele>33.3029</ele>
        <time>2012-03-15T14:10:55Z</time>
      </trkpt>
      <trkpt lat="59.9753531" lon="17.7432819">
        <ele>35.2255</ele>
        <time>2012-03-15T14:11:06Z</time>
      </trkpt>
      <trkpt lat="59.9754089" lon="17.7430102">
        <ele>35.2255</ele>
        <time>2012-03-15T14:11:15Z</time>
      </trkpt>
      <trkpt lat="59.9754697" lon="17.742744">
        <ele>34.7449</ele>
        <time>2012-03-15T14:11:24Z</time>
      </trkpt>
      <trkpt lat="59.975537" lon="17.7424925">
        <ele>33.7834</ele>
        <time>2012-03-15T14:11:33Z</time>
      </trkpt>
      <trkpt lat="59.9755533" lon="17.7424349">
        <ele>33.7834</ele>
        <time>2012-03-15T14:11:35Z</time>
      </trkpt>
      <trkpt lat="59.9756073" lon="17.7422182">
        <ele>33.7834</ele>
        <time>2012-03-15T14:11:43Z</time>
      </trkpt>
      <trkpt lat="59.9756669" lon="17.7420117">
        <ele>33.3029</ele>
        <time>2012-03-15T14:11:51Z</time>
      </trkpt>
      <trkpt lat="59.9756773" lon="17.7419945">
        <ele>33.7834</ele>
        <time>2012-03-15T14:11:52Z</time>
      </trkpt>
      <trkpt lat="59.9757311" lon="17.7418371">
        <ele>29.4575</ele>
        <time>2012-03-15T14:11:59Z</time>
      </trkpt>
      <trkpt lat="59.975802" lon="17.7415233">
        <ele>28.0155</ele>
        <time>2012-03-15T14:12:10Z</time>
      </trkpt>
      <trkpt lat="59.9758636" lon="17.741263">
        <ele>27.5349</ele>
        <time>2012-03-15T14:12:19Z</time>
      </trkpt>
      <trkpt lat="59.9759414" lon="17.7409777">
        <ele>28.0155</ele>
        <time>2012-03-15T14:12:29Z</time>
      </trkpt>
      <trkpt lat="59.9759925" lon="17.7407707">
        <ele>28.0155</ele>
        <time>2012-03-15T14:12:36Z</time>
      </trkpt>
      <trkpt lat="59.9760725" lon="17.7404992">
        <ele>28.9769</ele>
        <time>2012-03-15T14:12:46Z</time>
      </trkpt>
      <trkpt lat="59.976157" lon="17.7402319">
        <ele>29.9381</ele>
        <time>2012-03-15T14:12:56Z</time>
      </trkpt>
      <trkpt lat="59.976231" lon="17.7399878">
        <ele>30.4188</ele>
        <time>2012-03-15T14:13:05Z</time>
      </trkpt>
      <trkpt lat="59.9762906" lon="17.7398076">
        <ele>28.9769</ele>
        <time>2012-03-15T14:13:12Z</time>
      </trkpt>
      <trkpt lat="59.9763388" lon="17.739708">
        <ele>27.5349</ele>
        <time>2012-03-15T14:13:17Z</time>
      </trkpt>
      <trkpt lat="59.9764195" lon="17.7395837">
        <ele>26.0929</ele>
        <time>2012-03-15T14:13:24Z</time>
      </trkpt>
      <trkpt lat="59.9765206" lon="17.739443">
        <ele>27.0543</ele>
        <time>2012-03-15T14:13:32Z</time>
      </trkpt>
      <trkpt lat="59.9766614" lon="17.7393293">
        <ele>27.5349</ele>
        <time>2012-03-15T14:13:42Z</time>
      </trkpt>
      <trkpt lat="59.976777" lon="17.7392907">
        <ele>27.0543</ele>
        <time>2012-03-15T14:13:50Z</time>
      </trkpt>
      <trkpt lat="59.9769117" lon="17.7392528">
        <ele>26.0929</ele>
        <time>2012-03-15T14:13:59Z</time>
      </trkpt>
      <trkpt lat="59.9770473" lon="17.7391664">
        <ele>24.651</ele>
        <time>2012-03-15T14:14:09Z</time>
      </trkpt>
      <trkpt lat="59.9771682" lon="17.7391109">
        <ele>24.1703</ele>
        <time>2012-03-15T14:14:17Z</time>
      </trkpt>
      <trkpt lat="59.9773168" lon="17.7390404">
        <ele>26.0929</ele>
        <time>2012-03-15T14:14:27Z</time>
      </trkpt>
      <trkpt lat="59.9774374" lon="17.7389943">
        <ele>27.0543</ele>
        <time>2012-03-15T14:14:35Z</time>
      </trkpt>
      <trkpt lat="59.9775847" lon="17.7389571">
        <ele>26.0929</ele>
        <time>2012-03-15T14:14:45Z</time>
      </trkpt>
      <trkpt lat="59.9777695" lon="17.7389856">
        <ele>30.8995</ele>
        <time>2012-03-15T14:14:56Z</time>
      </trkpt>
      <trkpt lat="59.9779048" lon="17.7390269">
        <ele>33.3029</ele>
        <time>2012-03-15T14:15:04Z</time>
      </trkpt>
      <trkpt lat="59.9780262" lon="17.7390891">
        <ele>33.7834</ele>
        <time>2012-03-15T14:15:12Z</time>
      </trkpt>
      <trkpt lat="59.9781193" lon="17.7391088">
        <ele>31.3801</ele>
        <time>2012-03-15T14:15:19Z</time>
      </trkpt>
      <trkpt lat="59.9782294" lon="17.739172">
        <ele>26.0929</ele>
        <time>2012-03-15T14:15:27Z</time>
      </trkpt>
      <trkpt lat="59.9783045" lon="17.7392081">
        <ele>22.2476</ele>
        <time>2012-03-15T14:15:33Z</time>
      </trkpt>
      <trkpt lat="59.9784129" lon="17.739222">
        <ele>21.767</ele>
        <time>2012-03-15T14:15:40Z</time>
      </trkpt>
      <trkpt lat="59.9785678" lon="17.7392353">
        <ele>24.1703</ele>
        <time>2012-03-15T14:15:49Z</time>
      </trkpt>
      <trkpt lat="59.9786453" lon="17.7392511">
        <ele>25.6123</ele>
        <time>2012-03-15T14:15:54Z</time>
      </trkpt>
      <trkpt lat="59.9787154" lon="17.7393419">
        <ele>26.0929</ele>
        <time>2012-03-15T14:15:59Z</time>
      </trkpt>
      <trkpt lat="59.9788203" lon="17.7393266">
        <ele>27.0543</ele>
        <time>2012-03-15T14:16:06Z</time>
      </trkpt>
      <trkpt lat="59.9788647" lon="17.7393254">
        <ele>27.0543</ele>
        <time>2012-03-15T14:16:09Z</time>
      </trkpt>
      <trkpt lat="59.9788796" lon="17.7393373">
        <ele>27.0543</ele>
        <time>2012-03-15T14:16:10Z</time>
      </trkpt>
    </trkseg>
  </trk>
</gpx>